sensor_id;sensor_type;location;lat;lon;timestamp;pressure;altitude;pressure_sealevel;temperature
76713;BMP280;65640;43.154;25.658;2023-05-02T00:00:46;101170.00;;;11.77
76713;BMP280;65640;43.154;25.658;2023-05-02T00:03:12;101173.19;;;11.84
76713;BMP280;65640;43.154;25.658;2023-05-02T00:05:38;101171.91;;;11.86
76713;BMP280;65640;43.154;25.658;2023-05-02T00:08:03;101179.75;;;11.86
76713;BMP280;65640;43.154;25.658;2023-05-02T00:10:29;101177.41;;;11.90
76713;BMP280;65640;43.154;25.658;2023-05-02T00:12:54;101175.31;;;11.87
76713;BMP280;65640;43.154;25.658;2023-05-02T00:15:20;101170.56;;;11.84
76713;BMP280;65640;43.154;25.658;2023-05-02T00:17:45;101172.94;;;11.85
76713;BMP280;65640;43.154;25.658;2023-05-02T00:20:11;101183.16;;;11.82
76713;BMP280;65640;43.154;25.658;2023-05-02T00:22:37;101179.72;;;11.76
76713;BMP280;65640;43.154;25.658;2023-05-02T00:25:04;101180.44;;;11.51
76713;BMP280;65640;43.154;25.658;2023-05-02T00:27:29;101174.66;;;11.49
76713;BMP280;65640;43.154;25.658;2023-05-02T00:29:56;101190.91;;;11.51
76713;BMP280;65640;43.154;25.658;2023-05-02T00:32:22;101191.44;;;11.48
76713;BMP280;65640;43.154;25.658;2023-05-02T00:34:47;101189.03;;;11.42
76713;BMP280;65640;43.154;25.658;2023-05-02T00:37:13;101182.69;;;11.32
76713;BMP280;65640;43.154;25.658;2023-05-02T00:39:38;101187.69;;;11.34
76713;BMP280;65640;43.154;25.658;2023-05-02T00:42:04;101194.50;;;11.35
76713;BMP280;65640;43.154;25.658;2023-05-02T00:44:30;101182.94;;;11.26
76713;BMP280;65640;43.154;25.658;2023-05-02T00:46:56;101187.38;;;11.20
76713;BMP280;65640;43.154;25.658;2023-05-02T00:49:22;101186.03;;;11.18
76713;BMP280;65640;43.154;25.658;2023-05-02T00:51:47;101178.38;;;11.06
76713;BMP280;65640;43.154;25.658;2023-05-02T00:54:13;101188.72;;;10.91
76713;BMP280;65640;43.154;25.658;2023-05-02T00:56:38;101186.88;;;10.86
76713;BMP280;65640;43.154;25.658;2023-05-02T00:59:04;101189.16;;;10.73
76713;BMP280;65640;43.154;25.658;2023-05-02T01:04:53;101195.53;;;10.55
76713;BMP280;65640;43.154;25.658;2023-05-02T01:15:31;101190.94;;;10.40
76713;BMP280;65640;43.154;25.658;2023-05-02T01:18:00;101197.22;;;10.39
76713;BMP280;65640;43.154;25.658;2023-05-02T01:20:27;101189.59;;;10.33
76713;BMP280;65640;43.154;25.658;2023-05-02T01:22:55;101192.22;;;10.33
76713;BMP280;65640;43.154;25.658;2023-05-02T01:25:32;101193.25;;;10.32
76713;BMP280;65640;43.154;25.658;2023-05-02T01:28:16;101194.81;;;10.33
76713;BMP280;65640;43.154;25.658;2023-05-02T01:30:46;101189.03;;;10.31
76713;BMP280;65640;43.154;25.658;2023-05-02T01:33:16;101192.94;;;10.28
76713;BMP280;65640;43.154;25.658;2023-05-02T01:35:43;101192.69;;;10.30
76713;BMP280;65640;43.154;25.658;2023-05-02T01:38:13;101188.28;;;10.35
76713;BMP280;65640;43.154;25.658;2023-05-02T01:40:40;101193.81;;;10.39
76713;BMP280;65640;43.154;25.658;2023-05-02T01:43:08;101189.63;;;10.38
76713;BMP280;65640;43.154;25.658;2023-05-02T01:45:34;101193.56;;;10.40
76713;BMP280;65640;43.154;25.658;2023-05-02T01:48:02;101194.34;;;10.41
76713;BMP280;65640;43.154;25.658;2023-05-02T01:50:27;101198.00;;;10.40
76713;BMP280;65640;43.154;25.658;2023-05-02T01:52:54;101203.75;;;10.37
76713;BMP280;65640;43.154;25.658;2023-05-02T01:55:20;101200.59;;;10.35
76713;BMP280;65640;43.154;25.658;2023-05-02T01:57:47;101199.16;;;10.22
76713;BMP280;65640;43.154;25.658;2023-05-02T02:00:18;101196.22;;;10.19
76713;BMP280;65640;43.154;25.658;2023-05-02T02:02:45;101198.31;;;10.17
76713;BMP280;65640;43.154;25.658;2023-05-02T02:05:12;101196.63;;;10.05
76713;BMP280;65640;43.154;25.658;2023-05-02T02:07:38;101193.69;;;10.02
76713;BMP280;65640;43.154;25.658;2023-05-02T02:10:04;101193.41;;;9.98
76713;BMP280;65640;43.154;25.658;2023-05-02T02:12:35;101196.53;;;10.00
76713;BMP280;65640;43.154;25.658;2023-05-02T02:15:08;101200.22;;;9.99
76713;BMP280;65640;43.154;25.658;2023-05-02T02:18:13;101202.56;;;10.01
76713;BMP280;65640;43.154;25.658;2023-05-02T02:20:42;101200.47;;;9.98
76713;BMP280;65640;43.154;25.658;2023-05-02T02:23:08;101200.75;;;10.01
76713;BMP280;65640;43.154;25.658;2023-05-02T02:25:35;101200.91;;;9.90
76713;BMP280;65640;43.154;25.658;2023-05-02T02:28:01;101202.91;;;9.83
76713;BMP280;65640;43.154;25.658;2023-05-02T02:30:27;101211.00;;;9.81
76713;BMP280;65640;43.154;25.658;2023-05-02T02:32:52;101207.59;;;9.81
76713;BMP280;65640;43.154;25.658;2023-05-02T02:35:18;101210.06;;;9.71
76713;BMP280;65640;43.154;25.658;2023-05-02T02:37:47;101210.72;;;9.61
76713;BMP280;65640;43.154;25.658;2023-05-02T02:40:23;101209.31;;;9.53
76713;BMP280;65640;43.154;25.658;2023-05-02T02:45:58;101214.56;;;9.53
76713;BMP280;65640;43.154;25.658;2023-05-02T02:48:32;101213.66;;;9.48
76713;BMP280;65640;43.154;25.658;2023-05-02T02:51:22;101207.94;;;9.46
76713;BMP280;65640;43.154;25.658;2023-05-02T02:53:59;101215.38;;;9.37
76713;BMP280;65640;43.154;25.658;2023-05-02T02:56:35;101218.00;;;9.37
76713;BMP280;65640;43.154;25.658;2023-05-02T03:01:31;101223.56;;;9.24
76713;BMP280;65640;43.154;25.658;2023-05-02T03:03:57;101216.25;;;9.26
76713;BMP280;65640;43.154;25.658;2023-05-02T03:06:24;101220.63;;;9.20
76713;BMP280;65640;43.154;25.658;2023-05-02T03:08:49;101224.88;;;9.26
76713;BMP280;65640;43.154;25.658;2023-05-02T03:11:15;101229.31;;;9.26
76713;BMP280;65640;43.154;25.658;2023-05-02T03:13:40;101231.84;;;9.21
76713;BMP280;65640;43.154;25.658;2023-05-02T03:16:29;101233.59;;;9.15
76713;BMP280;65640;43.154;25.658;2023-05-02T03:18:55;101234.06;;;9.12
76713;BMP280;65640;43.154;25.658;2023-05-02T03:21:20;101232.47;;;9.11
76713;BMP280;65640;43.154;25.658;2023-05-02T03:23:46;101228.84;;;9.12
76713;BMP280;65640;43.154;25.658;2023-05-02T03:26:11;101225.38;;;9.23
76713;BMP280;65640;43.154;25.658;2023-05-02T03:28:37;101232.78;;;9.32
76713;BMP280;65640;43.154;25.658;2023-05-02T03:31:03;101235.34;;;9.43
76713;BMP280;65640;43.154;25.658;2023-05-02T03:33:28;101223.09;;;9.49
76713;BMP280;65640;43.154;25.658;2023-05-02T03:35:53;101231.31;;;9.57
76713;BMP280;65640;43.154;25.658;2023-05-02T03:38:19;101237.97;;;9.65
76713;BMP280;65640;43.154;25.658;2023-05-02T03:40:44;101235.63;;;9.63
76713;BMP280;65640;43.154;25.658;2023-05-02T03:43:10;101243.84;;;9.55
76713;BMP280;65640;43.154;25.658;2023-05-02T03:45:35;101244.31;;;9.52
76713;BMP280;65640;43.154;25.658;2023-05-02T03:48:01;101246.72;;;9.54
76713;BMP280;65640;43.154;25.658;2023-05-02T03:50:27;101247.19;;;9.51
76713;BMP280;65640;43.154;25.658;2023-05-02T03:52:52;101254.56;;;9.54
76713;BMP280;65640;43.154;25.658;2023-05-02T03:55:18;101252.41;;;9.51
76713;BMP280;65640;43.154;25.658;2023-05-02T03:57:43;101253.81;;;9.58
76713;BMP280;65640;43.154;25.658;2023-05-02T04:00:09;101255.13;;;9.56
76713;BMP280;65640;43.154;25.658;2023-05-02T04:02:35;101256.53;;;9.63
76713;BMP280;65640;43.154;25.658;2023-05-02T04:05:00;101259.50;;;9.72
76713;BMP280;65640;43.154;25.658;2023-05-02T04:07:26;101247.59;;;9.81
76713;BMP280;65640;43.154;25.658;2023-05-02T04:09:51;101261.31;;;9.93
76713;BMP280;65640;43.154;25.658;2023-05-02T04:12:17;101262.50;;;10.02
76713;BMP280;65640;43.154;25.658;2023-05-02T04:14:42;101261.59;;;10.14
76713;BMP280;65640;43.154;25.658;2023-05-02T04:17:08;101262.31;;;10.31
76713;BMP280;65640;43.154;25.658;2023-05-02T04:19:34;101265.00;;;10.36
76713;BMP280;65640;43.154;25.658;2023-05-02T04:21:59;101260.09;;;10.44
76713;BMP280;65640;43.154;25.658;2023-05-02T04:24:26;101263.16;;;10.63
76713;BMP280;65640;43.154;25.658;2023-05-02T04:26:53;101257.81;;;10.80
76713;BMP280;65640;43.154;25.658;2023-05-02T04:29:18;101265.03;;;11.00
76713;BMP280;65640;43.154;25.658;2023-05-02T04:31:44;101256.78;;;11.18
76713;BMP280;65640;43.154;25.658;2023-05-02T04:34:09;101266.94;;;11.46
76713;BMP280;65640;43.154;25.658;2023-05-02T04:36:36;101265.50;;;11.70
76713;BMP280;65640;43.154;25.658;2023-05-02T04:39:01;101266.13;;;11.93
76713;BMP280;65640;43.154;25.658;2023-05-02T04:41:27;101265.16;;;12.24
76713;BMP280;65640;43.154;25.658;2023-05-02T04:43:53;101265.19;;;12.49
76713;BMP280;65640;43.154;25.658;2023-05-02T04:46:18;101264.69;;;12.78
76713;BMP280;65640;43.154;25.658;2023-05-02T04:48:44;101255.47;;;12.95
76713;BMP280;65640;43.154;25.658;2023-05-02T04:51:09;101262.00;;;13.13
76713;BMP280;65640;43.154;25.658;2023-05-02T04:53:35;101260.94;;;13.29
76713;BMP280;65640;43.154;25.658;2023-05-02T04:56:01;101256.97;;;13.42
76713;BMP280;65640;43.154;25.658;2023-05-02T04:58:26;101261.91;;;13.54
76713;BMP280;65640;43.154;25.658;2023-05-02T05:00:52;101256.63;;;13.64
76713;BMP280;65640;43.154;25.658;2023-05-02T05:03:18;101253.91;;;13.79
76713;BMP280;65640;43.154;25.658;2023-05-02T05:05:44;101254.88;;;13.98
76713;BMP280;65640;43.154;25.658;2023-05-02T05:08:09;101259.97;;;14.23
76713;BMP280;65640;43.154;25.658;2023-05-02T05:10:35;101248.22;;;14.45
76713;BMP280;65640;43.154;25.658;2023-05-02T05:13:00;101258.88;;;14.63
76713;BMP280;65640;43.154;25.658;2023-05-02T05:15:26;101257.66;;;14.80
76713;BMP280;65640;43.154;25.658;2023-05-02T05:17:52;101269.00;;;14.80
76713;BMP280;65640;43.154;25.658;2023-05-02T05:20:17;101266.22;;;14.95
76713;BMP280;65640;43.154;25.658;2023-05-02T05:22:43;101259.94;;;15.15
76713;BMP280;65640;43.154;25.658;2023-05-02T05:25:10;101263.88;;;15.17
76713;BMP280;65640;43.154;25.658;2023-05-02T05:27:35;101266.22;;;15.43
76713;BMP280;65640;43.154;25.658;2023-05-02T05:30:02;101262.25;;;15.64
76713;BMP280;65640;43.154;25.658;2023-05-02T05:32:28;101262.97;;;15.70
76713;BMP280;65640;43.154;25.658;2023-05-02T05:34:54;101268.78;;;15.72
76713;BMP280;65640;43.154;25.658;2023-05-02T05:37:19;101262.94;;;15.75
76713;BMP280;65640;43.154;25.658;2023-05-02T05:39:46;101267.69;;;15.91
76713;BMP280;65640;43.154;25.658;2023-05-02T05:42:11;101265.84;;;16.10
76713;BMP280;65640;43.154;25.658;2023-05-02T05:44:37;101265.31;;;16.27
76713;BMP280;65640;43.154;25.658;2023-05-02T05:47:03;101264.66;;;16.35
76713;BMP280;65640;43.154;25.658;2023-05-02T05:49:29;101259.66;;;16.34
76713;BMP280;65640;43.154;25.658;2023-05-02T05:51:54;101268.34;;;16.53
76713;BMP280;65640;43.154;25.658;2023-05-02T05:54:19;101272.41;;;16.64
76713;BMP280;65640;43.154;25.658;2023-05-02T05:56:45;101273.81;;;16.70
76713;BMP280;65640;43.154;25.658;2023-05-02T05:59:11;101266.81;;;16.93
76713;BMP280;65640;43.154;25.658;2023-05-02T06:01:36;101267.69;;;17.16
76713;BMP280;65640;43.154;25.658;2023-05-02T06:04:02;101272.22;;;17.29
76713;BMP280;65640;43.154;25.658;2023-05-02T06:06:29;101268.09;;;17.50
76713;BMP280;65640;43.154;25.658;2023-05-02T06:08:56;101267.25;;;17.63
76713;BMP280;65640;43.154;25.658;2023-05-02T06:11:21;101270.88;;;17.67
76713;BMP280;65640;43.154;25.658;2023-05-02T06:13:49;101272.34;;;17.73
76713;BMP280;65640;43.154;25.658;2023-05-02T06:16:15;101262.22;;;17.75
76713;BMP280;65640;43.154;25.658;2023-05-02T06:18:42;101260.88;;;18.09
76713;BMP280;65640;43.154;25.658;2023-05-02T06:21:07;101265.66;;;18.20
76713;BMP280;65640;43.154;25.658;2023-05-02T06:23:33;101259.84;;;18.40
76713;BMP280;65640;43.154;25.658;2023-05-02T06:25:59;101262.34;;;18.76
76713;BMP280;65640;43.154;25.658;2023-05-02T06:28:25;101258.19;;;18.92
76713;BMP280;65640;43.154;25.658;2023-05-02T06:30:58;101261.50;;;19.07
76713;BMP280;65640;43.154;25.658;2023-05-02T06:33:25;101254.97;;;19.30
76713;BMP280;65640;43.154;25.658;2023-05-02T06:35:51;101249.53;;;19.52
76713;BMP280;65640;43.154;25.658;2023-05-02T06:38:17;101255.44;;;19.83
76713;BMP280;65640;43.154;25.658;2023-05-02T06:40:43;101246.56;;;19.79
76713;BMP280;65640;43.154;25.658;2023-05-02T06:43:09;101249.34;;;19.83
76713;BMP280;65640;43.154;25.658;2023-05-02T06:45:35;101246.50;;;19.88
76713;BMP280;65640;43.154;25.658;2023-05-02T06:48:00;101254.00;;;19.95
76713;BMP280;65640;43.154;25.658;2023-05-02T06:50:25;101255.88;;;19.94
76713;BMP280;65640;43.154;25.658;2023-05-02T06:52:51;101253.06;;;19.90
76713;BMP280;65640;43.154;25.658;2023-05-02T06:55:16;101256.78;;;20.07
76713;BMP280;65640;43.154;25.658;2023-05-02T06:57:42;101255.53;;;20.13
76713;BMP280;65640;43.154;25.658;2023-05-02T07:00:08;101251.09;;;20.34
76713;BMP280;65640;43.154;25.658;2023-05-02T07:02:34;101256.94;;;20.57
76713;BMP280;65640;43.154;25.658;2023-05-02T07:04:59;101261.53;;;20.77
76713;BMP280;65640;43.154;25.658;2023-05-02T07:07:25;101259.66;;;20.77
76713;BMP280;65640;43.154;25.658;2023-05-02T07:09:50;101257.41;;;20.88
76713;BMP280;65640;43.154;25.658;2023-05-02T07:12:16;101252.16;;;21.00
76713;BMP280;65640;43.154;25.658;2023-05-02T07:14:41;101251.97;;;21.05
76713;BMP280;65640;43.154;25.658;2023-05-02T07:17:07;101252.38;;;21.16
76713;BMP280;65640;43.154;25.658;2023-05-02T07:19:33;101248.13;;;21.15
76713;BMP280;65640;43.154;25.658;2023-05-02T07:21:58;101250.47;;;21.37
76713;BMP280;65640;43.154;25.658;2023-05-02T07:24:24;101251.63;;;21.48
76713;BMP280;65640;43.154;25.658;2023-05-02T07:26:50;101244.66;;;21.56
76713;BMP280;65640;43.154;25.658;2023-05-02T07:29:15;101258.56;;;21.94
76713;BMP280;65640;43.154;25.658;2023-05-02T07:31:41;101253.59;;;22.17
76713;BMP280;65640;43.154;25.658;2023-05-02T07:34:06;101254.25;;;22.02
76713;BMP280;65640;43.154;25.658;2023-05-02T07:36:32;101258.03;;;22.13
76713;BMP280;65640;43.154;25.658;2023-05-02T07:38:57;101248.91;;;22.38
76713;BMP280;65640;43.154;25.658;2023-05-02T07:41:22;101251.59;;;22.50
76713;BMP280;65640;43.154;25.658;2023-05-02T07:43:48;101244.00;;;22.64
76713;BMP280;65640;43.154;25.658;2023-05-02T07:46:13;101251.91;;;22.61
76713;BMP280;65640;43.154;25.658;2023-05-02T07:48:39;101239.34;;;22.73
76713;BMP280;65640;43.154;25.658;2023-05-02T07:51:10;101243.66;;;22.78
76713;BMP280;65640;43.154;25.658;2023-05-02T07:53:35;101230.06;;;22.83
76713;BMP280;65640;43.154;25.658;2023-05-02T07:56:04;101240.81;;;22.98
76713;BMP280;65640;43.154;25.658;2023-05-02T07:58:36;101242.63;;;22.82
76713;BMP280;65640;43.154;25.658;2023-05-02T08:01:01;101243.34;;;23.07
76713;BMP280;65640;43.154;25.658;2023-05-02T08:03:28;101233.78;;;23.06
76713;BMP280;65640;43.154;25.658;2023-05-02T08:05:54;101240.13;;;23.14
76713;BMP280;65640;43.154;25.658;2023-05-02T08:08:19;101232.09;;;23.14
76713;BMP280;65640;43.154;25.658;2023-05-02T08:10:44;101229.00;;;22.99
76713;BMP280;65640;43.154;25.658;2023-05-02T08:13:11;101230.06;;;22.95
76713;BMP280;65640;43.154;25.658;2023-05-02T08:15:36;101230.38;;;22.93
76713;BMP280;65640;43.154;25.658;2023-05-02T08:18:02;101223.56;;;23.24
76713;BMP280;65640;43.154;25.658;2023-05-02T08:20:27;101227.78;;;23.37
76713;BMP280;65640;43.154;25.658;2023-05-02T08:22:52;101224.69;;;23.50
76713;BMP280;65640;43.154;25.658;2023-05-02T08:25:18;101223.75;;;23.59
76713;BMP280;65640;43.154;25.658;2023-05-02T08:27:44;101222.28;;;23.92
76713;BMP280;65640;43.154;25.658;2023-05-02T08:30:10;101223.41;;;23.91
76713;BMP280;65640;43.154;25.658;2023-05-02T08:32:35;101221.78;;;24.02
76713;BMP280;65640;43.154;25.658;2023-05-02T08:35:01;101214.09;;;23.85
76713;BMP280;65640;43.154;25.658;2023-05-02T08:37:27;101220.22;;;23.86
76713;BMP280;65640;43.154;25.658;2023-05-02T08:39:52;101215.66;;;23.86
76713;BMP280;65640;43.154;25.658;2023-05-02T08:42:18;101222.72;;;24.10
76713;BMP280;65640;43.154;25.658;2023-05-02T08:44:47;101224.00;;;24.16
76713;BMP280;65640;43.154;25.658;2023-05-02T08:47:14;101228.91;;;24.30
76713;BMP280;65640;43.154;25.658;2023-05-02T08:49:40;101219.91;;;24.38
76713;BMP280;65640;43.154;25.658;2023-05-02T08:52:07;101215.13;;;24.47
76713;BMP280;65640;43.154;25.658;2023-05-02T08:54:36;101223.94;;;24.47
76713;BMP280;65640;43.154;25.658;2023-05-02T08:57:03;101216.00;;;24.51
76713;BMP280;65640;43.154;25.658;2023-05-02T08:59:29;101223.94;;;24.67
76713;BMP280;65640;43.154;25.658;2023-05-02T09:01:58;101222.56;;;24.73
76713;BMP280;65640;43.154;25.658;2023-05-02T09:04:29;101228.38;;;24.78
76713;BMP280;65640;43.154;25.658;2023-05-02T09:06:55;101221.88;;;24.76
76713;BMP280;65640;43.154;25.658;2023-05-02T09:09:21;101222.06;;;24.86
76713;BMP280;65640;43.154;25.658;2023-05-02T09:11:48;101227.06;;;24.88
76713;BMP280;65640;43.154;25.658;2023-05-02T09:14:15;101211.50;;;24.93
76713;BMP280;65640;43.154;25.658;2023-05-02T09:16:40;101207.97;;;24.89
76713;BMP280;65640;43.154;25.658;2023-05-02T09:19:06;101208.88;;;24.97
76713;BMP280;65640;43.154;25.658;2023-05-02T09:21:37;101205.25;;;25.08
76713;BMP280;65640;43.154;25.658;2023-05-02T09:24:18;101206.63;;;24.99
76713;BMP280;65640;43.154;25.658;2023-05-02T09:27:04;101209.81;;;25.08
76713;BMP280;65640;43.154;25.658;2023-05-02T09:29:31;101192.84;;;25.00
76713;BMP280;65640;43.154;25.658;2023-05-02T09:32:04;101191.84;;;25.08
76713;BMP280;65640;43.154;25.658;2023-05-02T09:34:30;101185.09;;;25.37
76713;BMP280;65640;43.154;25.658;2023-05-02T09:36:55;101186.06;;;25.52
76713;BMP280;65640;43.154;25.658;2023-05-02T09:39:26;101190.44;;;25.60
76713;BMP280;65640;43.154;25.658;2023-05-02T09:41:55;101186.66;;;25.87
76713;BMP280;65640;43.154;25.658;2023-05-02T09:44:22;101189.56;;;26.05
76713;BMP280;65640;43.154;25.658;2023-05-02T09:46:50;101173.59;;;26.15
76713;BMP280;65640;43.154;25.658;2023-05-02T09:49:16;101172.06;;;26.14
76713;BMP280;65640;43.154;25.658;2023-05-02T09:51:44;101195.88;;;25.90
76713;BMP280;65640;43.154;25.658;2023-05-02T09:54:09;101174.84;;;25.69
76713;BMP280;65640;43.154;25.658;2023-05-02T09:56:54;101174.75;;;25.62
76713;BMP280;65640;43.154;25.658;2023-05-02T09:59:23;101173.09;;;25.54
76713;BMP280;65640;43.154;25.658;2023-05-02T10:01:55;101168.03;;;25.75
76713;BMP280;65640;43.154;25.658;2023-05-02T10:04:21;101172.06;;;25.85
76713;BMP280;65640;43.154;25.658;2023-05-02T10:06:47;101181.84;;;25.73
76713;BMP280;65640;43.154;25.658;2023-05-02T10:09:15;101176.31;;;25.63
76713;BMP280;65640;43.154;25.658;2023-05-02T10:11:43;101162.78;;;25.82
76713;BMP280;65640;43.154;25.658;2023-05-02T10:14:10;101163.63;;;25.86
76713;BMP280;65640;43.154;25.658;2023-05-02T10:16:37;101164.22;;;25.76
76713;BMP280;65640;43.154;25.658;2023-05-02T10:19:10;101165.22;;;25.91
76713;BMP280;65640;43.154;25.658;2023-05-02T10:21:39;101160.31;;;25.96
76713;BMP280;65640;43.154;25.658;2023-05-02T10:24:04;101161.53;;;26.02
76713;BMP280;65640;43.154;25.658;2023-05-02T10:26:33;101158.13;;;26.05
76713;BMP280;65640;43.154;25.658;2023-05-02T10:28:59;101160.53;;;25.84
76713;BMP280;65640;43.154;25.658;2023-05-02T10:31:24;101164.81;;;25.89
76713;BMP280;65640;43.154;25.658;2023-05-02T10:33:51;101151.63;;;26.06
76713;BMP280;65640;43.154;25.658;2023-05-02T10:36:20;101149.28;;;26.01
76713;BMP280;65640;43.154;25.658;2023-05-02T10:38:46;101146.03;;;25.89
76713;BMP280;65640;43.154;25.658;2023-05-02T10:41:14;101142.03;;;25.79
76713;BMP280;65640;43.154;25.658;2023-05-02T10:43:45;101140.41;;;25.71
76713;BMP280;65640;43.154;25.658;2023-05-02T10:46:33;101137.56;;;25.87
76713;BMP280;65640;43.154;25.658;2023-05-02T10:49:00;101133.06;;;25.94
76713;BMP280;65640;43.154;25.658;2023-05-02T10:51:27;101131.59;;;26.00
76713;BMP280;65640;43.154;25.658;2023-05-02T10:53:54;101135.41;;;25.99
76713;BMP280;65640;43.154;25.658;2023-05-02T10:56:21;101135.44;;;25.73
76713;BMP280;65640;43.154;25.658;2023-05-02T10:58:49;101138.38;;;25.91
76713;BMP280;65640;43.154;25.658;2023-05-02T11:04:10;101136.38;;;25.84
76713;BMP280;65640;43.154;25.658;2023-05-02T11:11:47;101127.88;;;26.42
76713;BMP280;65640;43.154;25.658;2023-05-02T11:24:44;101125.16;;;26.38
76713;BMP280;65640;43.154;25.658;2023-05-02T11:30:08;101120.56;;;26.39
76713;BMP280;65640;43.154;25.658;2023-05-02T11:35:22;101122.41;;;26.31
76713;BMP280;65640;43.154;25.658;2023-05-02T11:38:04;101116.19;;;26.23
76713;BMP280;65640;43.154;25.658;2023-05-02T11:40:30;101115.00;;;26.24
76713;BMP280;65640;43.154;25.658;2023-05-02T11:42:57;101113.53;;;25.97
76713;BMP280;65640;43.154;25.658;2023-05-02T11:45:33;101112.91;;;26.07
76713;BMP280;65640;43.154;25.658;2023-05-02T11:48:01;101107.94;;;26.43
76713;BMP280;65640;43.154;25.658;2023-05-02T11:50:28;101092.41;;;26.62
76713;BMP280;65640;43.154;25.658;2023-05-02T11:52:54;101097.75;;;26.59
76713;BMP280;65640;43.154;25.658;2023-05-02T11:55:20;101097.34;;;26.57
76713;BMP280;65640;43.154;25.658;2023-05-02T11:57:46;101099.97;;;26.50
76713;BMP280;65640;43.154;25.658;2023-05-02T12:00:11;101097.00;;;26.62
76713;BMP280;65640;43.154;25.658;2023-05-02T12:02:41;101091.84;;;26.86
76713;BMP280;65640;43.154;25.658;2023-05-02T12:05:08;101094.31;;;27.02
76713;BMP280;65640;43.154;25.658;2023-05-02T12:07:42;101091.00;;;27.19
76713;BMP280;65640;43.154;25.658;2023-05-02T12:10:09;101091.28;;;27.07
76713;BMP280;65640;43.154;25.658;2023-05-02T12:12:35;101086.91;;;26.88
76713;BMP280;65640;43.154;25.658;2023-05-02T12:15:04;101077.41;;;27.02
76713;BMP280;65640;43.154;25.658;2023-05-02T12:17:30;101081.66;;;27.06
76713;BMP280;65640;43.154;25.658;2023-05-02T12:19:56;101076.69;;;27.12
76713;BMP280;65640;43.154;25.658;2023-05-02T12:22:23;101082.53;;;27.17
76713;BMP280;65640;43.154;25.658;2023-05-02T12:24:50;101078.44;;;26.90
76713;BMP280;65640;43.154;25.658;2023-05-02T12:27:17;101080.47;;;27.04
76713;BMP280;65640;43.154;25.658;2023-05-02T12:29:43;101070.53;;;27.11
76713;BMP280;65640;43.154;25.658;2023-05-02T12:32:10;101073.19;;;27.04
76713;BMP280;65640;43.154;25.658;2023-05-02T12:34:37;101067.28;;;26.84
76713;BMP280;65640;43.154;25.658;2023-05-02T12:37:03;101065.50;;;26.59
76713;BMP280;65640;43.154;25.658;2023-05-02T12:39:39;101054.13;;;26.72
76713;BMP280;65640;43.154;25.658;2023-05-02T12:42:12;101049.75;;;27.05
76713;BMP280;65640;43.154;25.658;2023-05-02T12:44:39;101050.84;;;26.93
76713;BMP280;65640;43.154;25.658;2023-05-02T12:47:05;101044.13;;;26.69
76713;BMP280;65640;43.154;25.658;2023-05-02T12:49:31;101043.50;;;26.90
76713;BMP280;65640;43.154;25.658;2023-05-02T12:51:56;101045.91;;;27.02
76713;BMP280;65640;43.154;25.658;2023-05-02T12:54:22;101037.78;;;26.91
76713;BMP280;65640;43.154;25.658;2023-05-02T12:56:48;101036.72;;;27.07
76713;BMP280;65640;43.154;25.658;2023-05-02T12:59:29;101028.13;;;26.87
76713;BMP280;65640;43.154;25.658;2023-05-02T13:01:55;101033.50;;;26.87
76713;BMP280;65640;43.154;25.658;2023-05-02T13:04:21;101031.16;;;26.82
76713;BMP280;65640;43.154;25.658;2023-05-02T13:06:57;101025.84;;;26.92
76713;BMP280;65640;43.154;25.658;2023-05-02T13:09:22;101023.63;;;27.02
76713;BMP280;65640;43.154;25.658;2023-05-02T13:11:48;101023.56;;;26.91
76713;BMP280;65640;43.154;25.658;2023-05-02T13:14:13;101018.91;;;26.88
76713;BMP280;65640;43.154;25.658;2023-05-02T13:16:38;101020.44;;;26.85
76713;BMP280;65640;43.154;25.658;2023-05-02T13:19:04;101019.63;;;26.78
76713;BMP280;65640;43.154;25.658;2023-05-02T13:21:29;101018.00;;;26.70
76713;BMP280;65640;43.154;25.658;2023-05-02T13:23:55;101009.38;;;26.94
76713;BMP280;65640;43.154;25.658;2023-05-02T13:26:22;101012.53;;;27.10
76713;BMP280;65640;43.154;25.658;2023-05-02T13:28:48;101011.00;;;27.09
76713;BMP280;65640;43.154;25.658;2023-05-02T13:31:13;101008.31;;;27.09
76713;BMP280;65640;43.154;25.658;2023-05-02T13:33:38;101009.91;;;27.21
76713;BMP280;65640;43.154;25.658;2023-05-02T13:36:04;101013.69;;;27.09
76713;BMP280;65640;43.154;25.658;2023-05-02T13:38:29;101003.63;;;26.99
76713;BMP280;65640;43.154;25.658;2023-05-02T13:40:55;101004.38;;;26.96
76713;BMP280;65640;43.154;25.658;2023-05-02T13:43:20;101000.94;;;26.99
76713;BMP280;65640;43.154;25.658;2023-05-02T13:45:46;100999.41;;;27.05
76713;BMP280;65640;43.154;25.658;2023-05-02T13:48:13;100992.28;;;27.23
76713;BMP280;65640;43.154;25.658;2023-05-02T13:50:39;100985.72;;;27.24
76713;BMP280;65640;43.154;25.658;2023-05-02T13:53:05;100999.47;;;27.12
76713;BMP280;65640;43.154;25.658;2023-05-02T13:55:30;100998.25;;;27.03
76713;BMP280;65640;43.154;25.658;2023-05-02T13:57:55;100997.50;;;27.02
76713;BMP280;65640;43.154;25.658;2023-05-02T14:00:21;100997.88;;;26.97
76713;BMP280;65640;43.154;25.658;2023-05-02T14:02:46;100992.97;;;27.13
76713;BMP280;65640;43.154;25.658;2023-05-02T14:05:12;101001.50;;;27.29
76713;BMP280;65640;43.154;25.658;2023-05-02T14:07:38;100999.91;;;27.18
76713;BMP280;65640;43.154;25.658;2023-05-02T14:10:03;100996.75;;;27.05
76713;BMP280;65640;43.154;25.658;2023-05-02T14:12:29;101007.78;;;26.89
76713;BMP280;65640;43.154;25.658;2023-05-02T14:14:55;101010.09;;;26.91
76713;BMP280;65640;43.154;25.658;2023-05-02T14:17:21;101002.75;;;26.84
76713;BMP280;65640;43.154;25.658;2023-05-02T14:19:49;101002.22;;;26.65
76713;BMP280;65640;43.154;25.658;2023-05-02T14:22:14;101007.06;;;26.49
76713;BMP280;65640;43.154;25.658;2023-05-02T14:24:40;101005.00;;;26.31
76713;BMP280;65640;43.154;25.658;2023-05-02T14:27:05;101003.88;;;26.36